AirNav   Air Wisconsin Up To $57,000 Bonus
 
 1105 users online  

22FD Destin Emergency Care Center Heliport
Destin, Florida, USA

GOING TO DESTIN?


FAA INFORMATION EFFECTIVE 02 JANUARY 2020

Location

FAA Identifier: 22FD
Lat/Long: 30-23-38.0000N 086-28-17.0000W
30-23.633333N 086-28.283333W
30.3938889,-86.4713889
(estimated)
Elevation: 13 ft. / 4 m (estimated)
Time zone: UTC -6 (UTC -5 during Daylight Saving Time)
Zip code: 32541

Heliport Operations

Heliport use: Private use, MEDICAL USE.
Activation date: 01/2007
Control tower: no
ARTCC: JACKSONVILLE CENTER
FSS: GAINESVILLE FLIGHT SERVICE STATION
Attendance: CONTINUOUS
Wind indicator: lighted
Segmented circle: no
Lights: SS-SR
Beacon: white-green-yellow (heliport)

Heliport Communications

WX ASOS at DTS (0.4 nm N): PHONE 850-654-7128

Nearby radio navigation aids

VOR radial/distance  VOR name  Freq  Var
CEWr155/28.1CRESTVIEW VORTAC115.9003E

 
NDB name  Hdg/Dist  Freq  Var  ID
LYNNE280/35.927804WPFN .--. ..-. -.
PICKENS096/36.732602WPKZ .--. -.- --..

Heliport Services

Runway Information

Helipad H1

Dimensions: 20 x 20 ft. / 6 x 6 m
Surface: concrete
Latitude: 30-23.633333N
Longitude: 086-28.283333W
Elevation: 13.0 ft.
Traffic pattern: leftleft

Heliport Ownership and Management from official FAA records

Ownership: Privately-owned
Owner: FT WALTON BEACH MEDICAL CENTER
1000 MAR WALT DRIVE
FT WALTON BEACH, FL 32547
Phone 850-862-1111
DESTIN EMERGENCY CARE CENTER IS LCTD AT 496 AIRPORT ROAD, DESTIN FL 32541.
Manager: ROBERT SETTLES
1000 MAR WALT DRIVE
FT WALTON BEACH, FL 32547
Phone 850-863-7540
FACILITIES SERVICE MANAGER TIM ANDERSON 996 AIRPORT RD DESTIN, FL 32541 850-635-9068

Additional Remarks

ALL DEPT HELOS CTC EGLIN CLNC DLVY ON 121.6 OR 122.7
FOR CD CTC EGLIN APCH 850-882-9152 OR 850-882-9151.

Instrument Procedures

There are no published instrument procedures at 22FD.

Some nearby airports with instrument procedures:

KDTS - Destin Executive Airport (0 nm N)
KVPS - Eglin Air Force Base/Destin-Fort Walton Beach Airport (6 nm NW)
KHRT - Hurlburt Field Airport (11 nm W)
KEGI - Duke Field (Eglin AF Aux Nr 3) Airport (16 nm N)
KCEW - Bob Sikes Airport (23 nm N)
 
Loc | Ops | Rwys | IFR | FBO | Links
Com | Nav | Svcs | Stats | Notes

Continental Services
AirBoss

 
Aerial photo
No photo
 
Sectional chart

 
Airport distance calculator
Flying to Destin Emergency Care Center Heliport? Find the distance to fly.

From to 22FD

Sunrise and sunset
Times for 23-Jan-2020
 Local
(UTC-6)
 Zulu
(UTC)
Morning civil twilight06:1712:17
Sunrise06:4212:42
Sunset17:1323:13
Evening civil twilight17:3923:39

Current date and time
Zulu (UTC)  24-Jan-2020 00:42:49
Local (UTC-6)  23-Jan-2020 18:42:49
 
METAR
KDTS 232353Z 07005KT 10SM -RA FEW060 OVC075 13/12 A2999 RMK AO2 SLP153 P0003 60016 T01330117 10144 20111 56006
KVPS 
5nm NW 
232356Z AUTO 08005KT 10SM SCT050 OVC070 13/12 A2997 RMK AO2 RAE54 SLPNO P0001 60013 T01290123 10146 20119 56006 $
KHRT 
10nm W 
232350Z 09006KT 10SM BKN013 OVC060 13/11 A2997 RMK AO2A RAE50 SLP150 $
KEGI 
15nm N 
240020Z AUTO 09004KT 10SM -RA FEW029 SCT065 12/12 A2998 RMK AO2 RAB20 SLPNO $
TAF
KVPS 
5nm NW 
232145Z 2321/2424 09009KT 9000 -SHRA BR FEW018 BKN040 OVC070 QNH2995INS BECMG 2323/2324 12010G15KT 9000 -SHRA BR SCT008 OVC018 QNH2996INS BECMG 2400/2401 15010KT 4800 -SHRA BR SCT003 OVC010 QNH2993INS TEMPO 2400/2403 19015G20KT 3200 BR VCTS OVC008CB BECMG 2406/2407 16012KT 3200 BR FEW008 BKN012 QNH2995INS BECMG 2408/2409 15009KT 0800 FG OVC005 QNH2996INS BECMG 2413/2414 32012G18KT 9000 BR BKN012 OVC030 QNH2998INS BECMG 2418/2419 33015G20KT 9999 NSW SCT012 QNH3002INS TX14/2321Z TN10/2410Z
KHRT 
10nm W 
232312Z 2323/2424 09008KT 8000 RA SCT002 BKN010 OVC035 621005 QNH2995INS BECMG 2401/2402 10010KT 4800 RA BR BKN008 OVC030 620909 621802 QNH2994INS BECMG 2403/2404 12010KT 4800 RA BR BKN005 BKN030 620909 QNH2993INS BECMG 2405/2406 18010KT 9999 NSW BKN010 BKN070 QNH2989INS BECMG 2421/2422 18010KT 4800 TSRA BKN010CB QNH2978INS TX12/2323Z TN11/2405Z
KEGI 
15nm N 
231800Z 2318/2424 09010G15KT 9999 SCT025 BKN050 BKN180 QNH3000INS BECMG 2321/2322 12010G15KT 9000 -SHRA SCT010 BKN018 OVC050 QNH2998INS BECMG 2400/2401 15010G15KT 6000 -SHRA BR BKN010 OVC018 QNH2996INS TEMPO 2400/2403 19012G18KT 4800 -TSRA BR OVC010CB BECMG 2406/2407 16012KT 4800 BR BKN010 OVC030 QNH2993INS BECMG 2409/2410 19009KT 3200 BR OVC008 QNH2993INS BECMG 2414/2415 31010G15KT 9999 NSW BKN012 BKN030 QNH3000INS BECMG 2418/2419 32012G18KT 9999 SCT015 QNH3003INS TX16/2323Z TN12/2411Z
NOTAMs
Click for the latest NOTAMs
NOTAMs are issued by the DoD/FAA and will open in a separate window not controlled by AirNav.

 

 
 

Would you like to see your business listed on this page?

 If your business provides an interesting product or service to pilots, flight crews, aircraft, or users of the Destin Emergency Care Center Heliport, you should consider listing it here.  To start the listing process, click on the button below
 
Add a business
 

Other Pages about Destin Emergency Care Center Heliport

Update a link
 
Copyright © AirNav, LLC. All rights reserved. Privacy Policy  Contact